Flight Track Log - Related Links

Times and Time Zones

All times are in EDT time to prevent confusion due to time zone crossing. See the CES5589 flight status page for this flight to view local times or setup timezone preferences in your user account.

Time Position Orientation Groundspeed Altitude Reporting Facility
EDT Latitude Longitude Course Direction KTS MPH feet Rate Location/Type
Mon 09:25:00 AM 28.7711 120.1153 204° Southwest  Level Estimated
Mon 09:26:00 AM 28.6775 120.0695 203° Southwest  Level Estimated
Mon 09:27:00 AM 28.5840 120.0237 203° Southwest  Level Estimated
Mon 09:28:00 AM 28.4904 119.9781 203° Southwest  Level Estimated
Mon 09:29:00 AM 28.3968 119.9325 203° Southwest  Level Estimated
Mon 09:30:00 AM 28.3032 119.8871 203° Southwest  Level Estimated
Mon 09:31:00 AM 28.2095 119.8417 203° Southwest  Level Estimated
Mon 09:32:00 AM 28.1159 119.7963 203° Southwest  Level Estimated
Mon 09:33:00 AM 28.0222 119.7511 203° Southwest  Level Estimated
Mon 09:34:00 AM 27.9285 119.7059 203° Southwest  Level Estimated
Mon 09:35:00 AM 27.8348 119.6609 203° Southwest  Level Estimated
Mon 09:36:00 AM 27.7411 119.6159 203° Southwest  Level Estimated
Mon 09:37:00 AM 27.6474 119.5709 203° Southwest  Level Estimated
Mon 09:38:00 AM 27.5537 119.5261 203° Southwest  Level Estimated
Mon 09:39:00 AM 27.4599 119.4813 203° Southwest  Level Estimated
Mon 09:40:00 AM 27.3661 119.4366 203° Southwest  Level Estimated
Mon 09:41:00 AM 27.2724 119.3920 203° Southwest  Level Estimated
Mon 09:42:00 AM 27.1786 119.3474 203° Southwest  Level Estimated
Mon 09:43:00 AM 27.0848 119.3030 203° Southwest  Level Estimated
Mon 09:44:00 AM 26.9909 119.2586 203° Southwest  Level Estimated
Mon 09:45:00 AM 26.8971 119.2142 203° Southwest  Level Estimated
Mon 09:46:00 AM 26.8033 119.1700 203° Southwest  Level Estimated
Mon 09:47:00 AM 26.7094 119.1258 203° Southwest  Level Estimated
Mon 09:48:00 AM 26.6155 119.0817 203° Southwest  Level Estimated
Mon 09:49:00 AM 26.5216 119.0377 203° Southwest  Level Estimated
Mon 09:50:00 AM 26.4277 118.9937 203° Southwest  Level Estimated
Mon 09:51:00 AM 26.3338 118.9498 203° Southwest  Level Estimated
Mon 09:52:00 AM 26.2399 118.9060 203° Southwest  Level Estimated
Mon 09:53:00 AM 26.1459 118.8623 203° Southwest  Level Estimated
Mon 09:54:00 AM 26.0520 118.8186 203° Southwest  Level Estimated
Mon 09:55:00 AM 25.9580 118.7750 203° Southwest  Level Estimated
Mon 09:56:00 AM 25.8640 118.7315 203° Southwest  Level Estimated
Mon 09:57:00 AM 25.7700 118.6880 203° Southwest  Level Estimated
Mon 09:58:00 AM 25.6760 118.6446 203° Southwest  Level Estimated
Mon 09:59:00 AM 25.5820 118.6013 203° Southwest  Level Estimated
Mon 10:00:00 AM 25.4880 118.5580 203° Southwest  Level Estimated
Mon 10:01:00 AM 25.3939 118.5148 203° Southwest  Level Estimated
Mon 10:02:00 AM 25.2999 118.4717 203° Southwest  Level Estimated
Mon 10:03:00 AM 25.2058 118.4286 202° Southwest  Level Estimated
Mon 10:04:00 AM 25.1117 118.3856 202° Southwest  Level Estimated
Mon 10:05:00 AM 25.0089 118.3388 202° Southwest  Level Estimated
Mon 10:06:00 AM 24.9061 118.2919 202° Southwest  Level Estimated
Mon 10:07:00 AM 24.8033 118.2452 202° Southwest  Level Estimated
Mon 10:08:00 AM 24.7005 118.1986 202° Southwest  Level Estimated
Mon 10:09:00 AM 24.5977 118.1520 202° Southwest  Level Estimated
Mon 10:10:00 AM 24.5440 118.1277 202° Southwest  Level Estimated
Mon 10:11:00 AM 24.5440 118.1277 North  Level Estimated
Mon 10:12:00 AM 24.5440 118.1277 North  Level Estimated
Mon 10:13:00 AM 24.5440 118.1277 North  Level Estimated
Mon 10:14:00 AM 24.5440 118.1277 North  Level Estimated
Mon 10:15:00 AM 24.5440 118.1277 North  Level Estimated
Mon 10:16:00 AM 24.5440 118.1277 North  Level Estimated
Mon 10:17:00 AM 24.5440 118.1277 North  Level Estimated
Mon 10:18:00 AM 24.5440 118.1277 North  Level Estimated
Mon 10:19:00 AM 24.5440 118.1277 North  Level Estimated
Mon 10:20:00 AM 24.5440 118.1277 North  Level Estimated

Login

Don't have an account? Register now (free) for customized features, flight alerts, and more!